Time;durP1;ratioP1;P1;durP2;ratioP2;P2;SDS_P1;SDS_P2;PMS_P1;PMS_P2;Temp;Humidity;BMP_temperature;BMP_pressure;BME280_temperature;BME280_humidity;BME280_pressure;Samples;Min_cycle;Max_cycle;Signal;HPM_P1;HPM_P2
2023/01/25 00:00:05;;;;;;;24.27;11.53;;;;;;;-141.59;100.00;61776.25;4963065;28;20213;-79
2023/01/25 00:02:32;;;;;;;18.87;11.37;;;;;;;-141.59;100.00;61776.25;4941334;28;20226;-78
2023/01/25 00:04:59;;;;;;;21.60;11.90;;;;;;;-141.59;100.00;61776.25;4939062;29;20282;-78
2023/01/25 00:07:26;;;;;;;20.23;11.03;;;;;;;-141.59;100.00;61776.25;4945040;28;20209;-78
2023/01/25 00:09:53;;;;;;;19.87;10.53;;;;;;;-141.59;100.00;61776.25;4943500;28;20214;-79
2023/01/25 00:12:20;;;;;;;22.67;11.87;;;;;;;-141.59;100.00;61776.25;4949395;29;20216;-78
2023/01/25 00:14:49;;;;;;;19.50;11.50;;;;;;;-141.59;100.00;61776.25;4946353;29;20217;-78
2023/01/25 00:17:16;;;;;;;20.03;11.37;;;;;;;-141.59;100.00;61776.25;4949704;28;20225;-78
2023/01/25 00:19:43;;;;;;;21.77;11.30;;;;;;;-141.59;100.00;61776.25;4947663;29;20209;-78
2023/01/25 00:22:10;;;;;;;21.40;12.27;;;;;;;-141.59;100.00;61776.25;4943701;29;20242;-78
2023/01/25 00:24:37;;;;;;;22.10;12.00;;;;;;;-141.59;100.00;61776.25;4944729;28;20209;-78
2023/01/25 00:27:04;;;;;;;19.60;11.00;;;;;;;-141.59;100.00;61776.25;4934002;29;20242;-78
2023/01/25 00:29:32;;;;;;;21.17;11.37;;;;;;;-141.59;100.00;61776.25;4946633;28;20205;-78
2023/01/25 00:32:28;;;;;;;20.40;11.00;;;;;;;-141.59;100.00;61776.25;4940611;28;20224;-78
2023/01/25 00:34:55;;;;;;;20.60;11.33;;;;;;;-141.59;100.00;61776.25;4950519;28;20301;-78
2023/01/25 00:37:30;;;;;;;21.20;11.67;;;;;;;-141.59;100.00;61776.25;4946987;28;20205;-79
2023/01/25 00:39:57;;;;;;;21.10;11.70;;;;;;;-141.59;100.00;61776.25;4946453;28;20214;-78
2023/01/25 00:42:24;;;;;;;24.03;12.13;;;;;;;-141.59;100.00;61776.25;4951028;28;20221;-78
2023/01/25 00:44:51;;;;;;;20.03;11.30;;;;;;;-141.59;100.00;61776.25;4950158;28;20216;-79
2023/01/25 00:47:21;;;;;;;18.57;11.60;;;;;;;-141.59;100.00;61776.25;4952406;29;20316;-79
2023/01/25 00:49:49;;;;;;;18.87;10.93;;;;;;;-141.59;100.00;61776.25;4952682;29;20210;-78
2023/01/25 00:52:17;;;;;;;17.37;11.07;;;;;;;-141.59;100.00;61776.25;4949843;28;20205;-79
2023/01/25 00:54:44;;;;;;;19.80;11.23;;;;;;;-141.59;100.00;61776.25;4946390;28;20214;-78
2023/01/25 00:57:11;;;;;;;20.27;11.73;;;;;;;-141.59;100.00;61776.25;4950313;29;20210;-78
2023/01/25 00:59:43;;;;;;;21.23;11.50;;;;;;;-141.59;100.00;61776.25;4950224;28;20300;-79
2023/01/25 01:02:10;;;;;;;20.73;11.50;;;;;;;-141.59;100.00;61776.25;4954804;28;20232;-78
2023/01/25 01:04:39;;;;;;;24.07;11.37;;;;;;;-141.59;100.00;61776.25;4943020;28;20202;-79
2023/01/25 01:07:06;;;;;;;19.33;11.03;;;;;;;-141.59;100.00;61776.25;4942522;28;20214;-79
2023/01/25 01:09:33;;;;;;;19.37;10.97;;;;;;;-141.59;100.00;61776.25;4951586;29;20216;-79
2023/01/25 01:12:01;;;;;;;18.03;10.60;;;;;;;-141.59;100.00;61776.25;4950431;28;20213;-78
2023/01/25 01:14:28;;;;;;;19.23;10.13;;;;;;;-141.59;100.00;61776.25;4950701;28;20224;-78
2023/01/25 01:16:55;;;;;;;18.07;10.27;;;;;;;-141.59;100.00;61776.25;4951669;28;20281;-79
2023/01/25 01:19:21;;;;;;;18.13;10.20;;;;;;;-141.59;100.00;61776.25;4948404;28;20221;-78
2023/01/25 01:21:50;;;;;;;19.33;11.03;;;;;;;-141.59;100.00;61776.25;4944527;29;20229;-78
2023/01/25 01:24:18;;;;;;;18.70;11.30;;;;;;;-141.59;100.00;61776.25;4952053;28;20209;-79
2023/01/25 01:26:45;;;;;;;19.27;11.40;;;;;;;-141.59;100.00;61776.25;4952103;28;20218;-78
2023/01/25 01:29:13;;;;;;;17.20;10.90;;;;;;;-141.59;100.00;61776.25;4942005;28;20203;-78
2023/01/25 01:31:40;;;;;;;20.67;11.27;;;;;;;-141.59;100.00;61776.25;4950139;29;20244;-78
2023/01/25 01:34:19;;;;;;;18.97;10.90;;;;;;;-141.59;100.00;61776.25;4946603;29;20245;-78
2023/01/25 01:36:47;;;;;;;17.47;10.07;;;;;;;-141.59;100.00;61776.25;4944330;28;20215;-79
2023/01/25 01:39:15;;;;;;;19.80;11.37;;;;;;;-141.59;100.00;61776.25;4961035;28;20201;-78
2023/01/25 01:41:43;;;;;;;19.73;10.73;;;;;;;-141.59;100.00;61776.25;4938507;28;20210;-79
2023/01/25 01:44:16;;;;;;;20.00;11.33;;;;;;;-141.59;100.00;61776.25;4946092;28;20272;-79
2023/01/25 01:46:51;;;;;;;18.90;10.43;;;;;;;-141.59;100.00;61776.25;4939081;29;20206;-78
2023/01/25 01:49:24;;;;;;;20.27;11.07;;;;;;;-141.59;100.00;61776.25;4943555;28;20249;-79
2023/01/25 01:51:58;;;;;;;20.37;11.30;;;;;;;-141.59;100.00;61776.25;4944170;28;20261;-78
2023/01/25 01:54:33;;;;;;;18.03;10.30;;;;;;;-141.59;100.00;61776.25;4947625;28;20209;-78
2023/01/25 01:57:07;;;;;;;19.30;10.60;;;;;;;-141.59;100.00;61776.25;4944787;28;20222;-78
2023/01/25 01:59:39;;;;;;;20.03;10.97;;;;;;;-141.59;100.00;61776.25;4950968;28;20207;-78
2023/01/25 02:02:07;;;;;;;22.47;11.77;;;;;;;-141.59;100.00;61776.25;4955819;28;20264;-78
2023/01/25 02:04:34;;;;;;;17.57;10.23;;;;;;;-141.59;100.00;61776.25;4946075;29;20202;-78
2023/01/25 02:07:11;;;;;;;19.33;11.10;;;;;;;-141.59;100.00;61776.25;4946728;28;20225;-78
2023/01/25 02:09:40;;;;;;;17.97;10.57;;;;;;;-141.59;100.00;61776.25;4944353;29;20269;-79
2023/01/25 02:12:09;;;;;;;19.13;11.03;;;;;;;-141.59;100.00;61776.25;4948113;28;20211;-78
2023/01/25 02:14:40;;;;;;;19.77;11.10;;;;;;;-141.59;100.00;61776.25;4948707;28;20285;-78
2023/01/25 02:17:11;;;;;;;19.50;11.33;;;;;;;-141.59;100.00;61776.25;4948569;28;20304;-79
2023/01/25 02:19:48;;;;;;;21.63;11.00;;;;;;;-141.59;100.00;61776.25;4953971;28;20297;-79
2023/01/25 02:22:21;;;;;;;20.70;11.30;;;;;;;-141.59;100.00;61776.25;4949621;28;20225;-78
2023/01/25 02:25:02;;;;;;;19.83;11.20;;;;;;;-141.59;100.00;61776.25;4950294;29;20229;-78
2023/01/25 02:27:29;;;;;;;21.23;11.63;;;;;;;-141.59;100.00;61776.25;4949258;28;20213;-78
2023/01/25 02:29:56;;;;;;;23.70;11.20;;;;;;;-141.59;100.00;61776.25;4941507;28;20194;-78
2023/01/25 02:32:23;;;;;;;17.57;11.07;;;;;;;-141.59;100.00;61776.25;4934442;28;20217;-79
2023/01/25 02:34:50;;;;;;;18.97;11.00;;;;;;;-141.59;100.00;61776.25;4943771;29;20268;-78
2023/01/25 02:37:17;;;;;;;20.10;11.60;;;;;;;-141.59;100.00;61776.25;4945012;29;20237;-79
2023/01/25 02:39:44;;;;;;;24.40;12.63;;;;;;;-141.59;100.00;61776.25;4940458;28;20275;-78
2023/01/25 02:42:12;;;;;;;23.00;11.97;;;;;;;-141.59;100.00;61776.25;4950254;28;20313;-78
2023/01/25 02:44:40;;;;;;;21.07;11.77;;;;;;;-141.59;100.00;61776.25;4945305;28;20240;-79
2023/01/25 02:47:08;;;;;;;20.93;11.03;;;;;;;-141.59;100.00;61776.25;4946694;28;20206;-79
2023/01/25 02:49:36;;;;;;;21.67;11.30;;;;;;;-141.59;100.00;61776.25;4945682;28;20241;-78
2023/01/25 02:52:05;;;;;;;19.07;10.77;;;;;;;-141.59;100.00;61776.25;4946199;29;20238;-78
2023/01/25 02:54:32;;;;;;;20.80;10.97;;;;;;;-141.59;100.00;61776.25;4941294;29;20205;-78
2023/01/25 02:56:59;;;;;;;20.53;11.20;;;;;;;-141.59;100.00;61776.25;4934477;29;20213;-78
2023/01/25 02:59:32;;;;;;;19.37;11.03;;;;;;;-141.59;100.00;61776.25;4949701;28;20202;-79
2023/01/25 03:02:01;;;;;;;19.07;11.40;;;;;;;-141.59;100.00;61776.25;4942409;28;20260;-79
2023/01/25 03:04:28;;;;;;;18.93;11.33;;;;;;;-141.59;100.00;61776.25;4936884;29;20205;-79
2023/01/25 03:06:56;;;;;;;18.97;10.87;;;;;;;-141.59;100.00;61776.25;4945792;29;20217;-78
2023/01/25 03:09:23;;;;;;;25.30;10.90;;;;;;;-141.59;100.00;61776.25;4935268;28;20206;-78
2023/01/25 03:11:51;;;;;;;19.50;11.37;;;;;;;-141.59;100.00;61776.25;4958884;28;20233;-78
2023/01/25 03:14:20;;;;;;;22.90;13.00;;;;;;;-141.59;100.00;61776.25;4936997;29;20225;-78
2023/01/25 03:16:48;;;;;;;22.57;12.40;;;;;;;-141.59;100.00;61776.25;4936185;28;20277;-78
2023/01/25 03:19:18;;;;;;;23.37;12.37;;;;;;;-141.59;100.00;61776.25;4936426;29;20206;-78
2023/01/25 03:21:45;;;;;;;21.27;11.87;;;;;;;-141.59;100.00;61776.25;4948947;29;20217;-78
2023/01/25 03:24:13;;;;;;;20.50;11.13;;;;;;;-141.59;100.00;61776.25;4942781;29;20212;-78
2023/01/25 03:29:39;;;;;;;19.63;11.07;;;;;;;-141.59;100.00;61776.25;4942222;28;20202;-78
2023/01/25 03:32:13;;;;;;;22.63;11.43;;;;;;;-141.59;100.00;61776.25;4942701;29;20300;-78
2023/01/25 03:34:40;;;;;;;21.33;11.27;;;;;;;-141.59;100.00;61776.25;4933097;29;20237;-79
2023/01/25 03:37:07;;;;;;;21.27;11.97;;;;;;;-141.59;100.00;61776.25;4944000;28;20211;-78
2023/01/25 03:39:36;;;;;;;18.47;11.07;;;;;;;-141.59;100.00;61776.25;4944885;29;20209;-78
2023/01/25 03:42:04;;;;;;;18.67;11.10;;;;;;;-141.59;100.00;61776.25;4939810;29;20312;-78
2023/01/25 03:44:32;;;;;;;20.27;11.63;;;;;;;-141.59;100.00;61776.25;4947459;28;20342;-78
2023/01/25 03:46:59;;;;;;;18.73;11.00;;;;;;;-141.59;100.00;61776.25;4948803;28;20212;-78
2023/01/25 03:49:28;;;;;;;18.63;11.07;;;;;;;-141.59;100.00;61776.25;4941490;28;20229;-79
2023/01/25 03:51:56;;;;;;;20.90;11.13;;;;;;;-141.59;100.00;61776.25;4943049;28;20233;-79
2023/01/25 03:54:30;;;;;;;17.90;10.93;;;;;;;-141.59;100.00;61776.25;4946483;29;20216;-78
2023/01/25 03:56:58;;;;;;;23.93;11.80;;;;;;;-141.59;100.00;61776.25;4944427;29;20209;-78
2023/01/25 03:59:25;;;;;;;19.47;10.73;;;;;;;-141.59;100.00;61776.25;4936042;28;20208;-78
2023/01/25 04:01:55;;;;;;;19.73;10.93;;;;;;;-141.59;100.00;61776.25;4937758;28;20300;-79
2023/01/25 04:04:22;;;;;;;20.17;11.23;;;;;;;-141.59;100.00;61776.25;4944446;28;20264;-78
2023/01/25 04:06:51;;;;;;;19.33;10.70;;;;;;;-141.59;100.00;61776.25;4943873;28;20269;-78
2023/01/25 04:09:20;;;;;;;19.43;11.07;;;;;;;-141.59;100.00;61776.25;4941151;29;20214;-78
2023/01/25 04:11:51;;;;;;;18.13;10.57;;;;;;;-141.59;100.00;61776.25;4940692;28;20209;-79
2023/01/25 04:14:19;;;;;;;20.87;11.30;;;;;;;-141.59;100.00;61776.25;4944866;28;20221;-78
2023/01/25 04:16:56;;;;;;;21.33;11.17;;;;;;;-141.59;100.00;61776.25;4947326;29;20228;-79
2023/01/25 04:19:48;;;;;;;18.20;11.40;;;;;;;-141.59;100.00;61776.25;4951292;28;20268;-79
2023/01/25 04:22:19;;;;;;;18.90;10.63;;;;;;;-141.59;100.00;61776.25;4950741;28;20214;-78
2023/01/25 04:24:48;;;;;;;22.17;12.60;;;;;;;-141.59;100.00;61776.25;4944780;28;20214;-78
2023/01/25 04:27:15;;;;;;;19.67;11.53;;;;;;;-141.59;100.00;61776.25;4951531;29;20202;-79
2023/01/25 04:29:53;;;;;;;20.77;11.57;;;;;;;-141.59;100.00;61776.25;4948033;29;20248;-78
2023/01/25 04:32:21;;;;;;;18.67;11.67;;;;;;;-141.59;100.00;61776.25;4942502;28;20205;-78
2023/01/25 04:34:48;;;;;;;18.43;10.63;;;;;;;-141.59;100.00;61776.25;4946544;28;20234;-78
2023/01/25 04:37:21;;;;;;;20.67;11.43;;;;;;;-141.59;100.00;61776.25;4945949;28;20230;-79
2023/01/25 04:39:53;;;;;;;21.93;12.23;;;;;;;-141.59;100.00;61776.25;4949256;28;20306;-78
2023/01/25 04:42:21;;;;;;;22.90;12.43;;;;;;;-141.59;100.00;61776.25;4944988;28;20244;-79
2023/01/25 04:44:51;;;;;;;21.13;11.50;;;;;;;-141.59;100.00;61776.25;4952087;28;20236;-78
2023/01/25 04:47:19;;;;;;;20.53;11.30;;;;;;;-141.59;100.00;61776.25;4949137;28;20213;-78
2023/01/25 04:49:46;;;;;;;19.80;11.20;;;;;;;-141.59;100.00;61776.25;4945324;28;20206;-78
2023/01/25 04:52:17;;;;;;;20.67;11.30;;;;;;;-141.59;100.00;61776.25;4944622;29;20210;-78
2023/01/25 04:54:45;;;;;;;20.53;10.87;;;;;;;-141.59;100.00;61776.25;4945488;28;20221;-79
2023/01/25 04:57:12;;;;;;;21.07;11.63;;;;;;;-141.59;100.00;61776.25;4947321;28;20298;-78
2023/01/25 04:59:42;;;;;;;25.60;11.63;;;;;;;-141.59;100.00;61776.25;4945973;28;20237;-79
2023/01/25 05:02:09;;;;;;;21.47;11.47;;;;;;;-141.59;100.00;61776.25;4951806;28;20215;-78
2023/01/25 05:04:36;;;;;;;20.83;11.47;;;;;;;-141.59;100.00;61776.25;4947591;28;20252;-78
2023/01/25 05:07:04;;;;;;;19.87;11.60;;;;;;;-141.59;100.00;61776.25;4936592;29;20270;-79
2023/01/25 05:09:33;;;;;;;23.60;11.87;;;;;;;-141.59;100.00;61776.25;4948570;28;20205;-79
2023/01/25 05:12:02;;;;;;;23.70;12.03;;;;;;;-141.59;100.00;61776.25;4945810;29;20227;-78
2023/01/25 05:14:43;;;;;;;21.70;11.63;;;;;;;-141.59;100.00;61776.25;4945580;28;20217;-78
2023/01/25 05:17:10;;;;;;;21.90;11.37;;;;;;;-141.59;100.00;61776.25;4951581;28;20229;-78
2023/01/25 05:19:37;;;;;;;20.47;11.40;;;;;;;-141.59;100.00;61776.25;4947676;29;20202;-78
2023/01/25 05:22:10;;;;;;;20.20;11.47;;;;;;;-141.59;100.00;61776.25;4940780;29;20205;-78
2023/01/25 05:24:47;;;;;;;18.43;11.17;;;;;;;-141.59;100.00;61776.25;4940229;28;20202;-78
2023/01/25 05:27:17;;;;;;;20.73;12.13;;;;;;;-141.59;100.00;61776.25;4950209;28;20198;-78
2023/01/25 05:30:06;;;;;;;21.50;10.93;;;;;;;-141.59;100.00;61776.25;4938271;28;20216;-79
2023/01/25 05:32:56;;;;;;;20.77;11.97;;;;;;;-141.59;100.00;61776.25;4949078;28;20205;-79
2023/01/25 05:35:24;;;;;;;18.67;10.87;;;;;;;-141.59;100.00;61776.25;4938991;28;20248;-79
2023/01/25 05:37:57;;;;;;;22.17;12.77;;;;;;;-141.59;100.00;61776.25;4943296;28;20210;-78
2023/01/25 05:40:24;;;;;;;22.70;11.60;;;;;;;-141.59;100.00;61776.25;4949002;28;20248;-78
2023/01/25 05:42:56;;;;;;;20.67;12.03;;;;;;;-141.59;100.00;61776.25;4941660;28;20224;-78
2023/01/25 05:45:24;;;;;;;21.97;12.60;;;;;;;-141.59;100.00;61776.25;4937031;29;20214;-79
2023/01/25 05:47:55;;;;;;;21.23;11.67;;;;;;;-141.59;100.00;61776.25;4956220;28;20254;-78
2023/01/25 05:50:24;;;;;;;22.63;12.27;;;;;;;-141.59;100.00;61776.25;4948707;29;20210;-79
2023/01/25 05:53:04;;;;;;;22.20;12.43;;;;;;;-141.59;100.00;61776.25;4939355;28;20234;-78
2023/01/25 05:55:31;;;;;;;21.60;12.00;;;;;;;-141.59;100.00;61776.25;4944522;28;20212;-79
2023/01/25 05:58:04;;;;;;;22.07;12.70;;;;;;;-141.59;100.00;61776.25;4939731;28;20213;-79
2023/01/25 06:00:32;;;;;;;18.80;11.53;;;;;;;-141.59;100.00;61776.25;4947378;28;20202;-79
2023/01/25 06:03:01;;;;;;;20.43;12.30;;;;;;;-141.59;100.00;61776.25;4950119;29;20225;-80
2023/01/25 06:05:28;;;;;;;20.53;11.30;;;;;;;-141.59;100.00;61776.25;4935468;28;20261;-78
2023/01/25 06:07:55;;;;;;;20.70;11.97;;;;;;;-141.59;100.00;61776.25;4940342;28;20284;-79
2023/01/25 06:10:26;;;;;;;18.80;10.80;;;;;;;-141.59;100.00;61776.25;4941927;28;20205;-78
2023/01/25 06:12:58;;;;;;;18.53;10.47;;;;;;;-141.59;100.00;61776.25;4948824;29;20213;-79
2023/01/25 06:15:27;;;;;;;17.97;11.30;;;;;;;-141.59;100.00;61776.25;4963619;28;20205;-79
2023/01/25 06:17:58;;;;;;;19.73;10.33;;;;;;;-141.59;100.00;61776.25;4947326;28;20229;-79
2023/01/25 06:20:59;;;;;;;19.33;10.33;;;;;;;-141.59;100.00;61776.25;4933756;28;20297;-79
2023/01/25 06:23:36;;;;;;;19.60;10.77;;;;;;;-141.59;100.00;61776.25;4945670;28;20222;-79
2023/01/25 06:26:05;;;;;;;20.03;11.47;;;;;;;-141.59;100.00;61776.25;4947150;29;20322;-79
2023/01/25 06:28:33;;;;;;;20.40;10.90;;;;;;;-141.59;100.00;61776.25;4945990;29;20258;-79
2023/01/25 06:31:06;;;;;;;18.87;11.00;;;;;;;-141.59;100.00;61776.25;4949075;28;20308;-79
2023/01/25 06:33:33;;;;;;;19.63;11.53;;;;;;;-141.59;100.00;61776.25;4949548;28;20286;-79
2023/01/25 06:36:02;;;;;;;15.73;9.90;;;;;;;-141.59;100.00;61776.25;4943480;28;20211;-79
2023/01/25 06:38:29;;;;;;;16.50;9.53;;;;;;;-141.59;100.00;61776.25;4949137;29;20197;-78
2023/01/25 06:40:59;;;;;;;17.23;10.13;;;;;;;-141.59;100.00;61776.25;4950011;28;20211;-78
2023/01/25 06:43:27;;;;;;;17.47;10.13;;;;;;;-141.59;100.00;61776.25;4943725;29;20223;-78
2023/01/25 06:45:58;;;;;;;18.70;10.53;;;;;;;-141.59;100.00;61776.25;4948563;28;20209;-78
2023/01/25 06:48:26;;;;;;;20.23;10.43;;;;;;;-141.59;100.00;61776.25;4945089;29;20209;-79
2023/01/25 06:50:55;;;;;;;14.80;9.47;;;;;;;-141.59;100.00;61776.25;4938110;28;20206;-79
2023/01/25 06:53:22;;;;;;;15.17;9.13;;;;;;;-141.59;100.00;61776.25;4950760;29;20292;-78
2023/01/25 06:55:49;;;;;;;16.10;9.30;;;;;;;-141.59;100.00;61776.25;4951985;28;20209;-79
2023/01/25 06:58:16;;;;;;;17.40;10.53;;;;;;;-141.59;100.00;61776.25;4947168;28;20308;-78
2023/01/25 07:00:43;;;;;;;18.23;9.73;;;;;;;-141.59;100.00;61776.25;4949780;29;20205;-79
2023/01/25 07:03:10;;;;;;;16.87;9.77;;;;;;;-141.59;100.00;61776.25;4944246;28;20277;-79
2023/01/25 07:05:38;;;;;;;19.97;10.73;;;;;;;-141.59;100.00;61776.25;4944173;28;20209;-78
2023/01/25 07:08:08;;;;;;;16.83;10.00;;;;;;;-141.59;100.00;61776.25;4930883;28;20309;-79
2023/01/25 07:10:35;;;;;;;16.33;9.50;;;;;;;-141.59;100.00;61776.25;4942454;29;20305;-78
2023/01/25 07:13:02;;;;;;;19.63;10.23;;;;;;;-141.59;100.00;61776.25;4946697;28;20239;-78
2023/01/25 07:15:29;;;;;;;19.17;10.90;;;;;;;-141.59;100.00;61776.25;4948226;28;20213;-79
2023/01/25 07:17:56;;;;;;;20.13;11.53;;;;;;;-141.59;100.00;61776.25;4941968;29;20274;-78
2023/01/25 07:20:23;;;;;;;20.80;11.50;;;;;;;-141.59;100.00;61776.25;4941827;29;20212;-79
2023/01/25 07:22:52;;;;;;;20.23;11.07;;;;;;;-141.59;100.00;61776.25;4945969;29;20209;-79
2023/01/25 07:25:19;;;;;;;18.97;11.20;;;;;;;-141.59;100.00;61776.25;4946206;28;20202;-78
2023/01/25 07:27:47;;;;;;;18.47;11.10;;;;;;;-141.59;100.00;61776.25;4942523;29;20269;-78
2023/01/25 07:30:15;;;;;;;18.33;10.83;;;;;;;-141.59;100.00;61776.25;4936500;29;20210;-79
2023/01/25 07:32:42;;;;;;;20.60;11.53;;;;;;;-141.59;100.00;61776.25;4936903;28;20205;-79
2023/01/25 07:35:09;;;;;;;21.20;11.97;;;;;;;-141.59;100.00;61776.25;4946201;28;20238;-79
2023/01/25 07:37:37;;;;;;;20.73;12.27;;;;;;;-141.59;100.00;61776.25;4944693;29;20229;-80
2023/01/25 07:40:08;;;;;;;25.50;13.00;;;;;;;-141.59;100.00;61776.25;4944139;28;20210;-79
2023/01/25 07:42:35;;;;;;;20.70;11.67;;;;;;;-141.59;100.00;61776.25;4951563;28;20206;-79
2023/01/25 07:45:13;;;;;;;21.03;12.07;;;;;;;-141.59;100.00;61776.25;4944596;28;20249;-79
2023/01/25 07:47:40;;;;;;;24.60;13.07;;;;;;;-141.59;100.00;61776.25;4947491;28;20205;-80
2023/01/25 07:50:08;;;;;;;28.60;13.33;;;;;;;-141.59;100.00;61776.25;4950082;28;20202;-80
2023/01/25 07:52:34;;;;;;;22.40;13.20;;;;;;;-141.59;100.00;61776.25;4951051;28;20220;-80
2023/01/25 07:55:01;;;;;;;23.17;11.97;;;;;;;-141.59;100.00;61776.25;4948641;28;20209;-80
2023/01/25 07:57:30;;;;;;;23.87;13.10;;;;;;;-141.59;100.00;61776.25;4946549;29;20206;-79
2023/01/25 07:59:57;;;;;;;24.80;13.20;;;;;;;-141.59;100.00;61776.25;4937856;29;20206;-80
2023/01/25 08:02:24;;;;;;;23.63;12.73;;;;;;;-141.59;100.00;61776.25;4944797;28;20216;-79
2023/01/25 08:04:51;;;;;;;24.80;11.80;;;;;;;-141.59;100.00;61776.25;4950704;29;20285;-79
2023/01/25 08:07:19;;;;;;;22.63;12.87;;;;;;;-141.59;100.00;61776.25;4945543;29;20219;-80
2023/01/25 08:09:45;;;;;;;22.83;11.77;;;;;;;-141.59;100.00;61776.25;4951428;28;20224;-79
2023/01/25 08:12:12;;;;;;;23.33;11.73;;;;;;;-141.59;100.00;61776.25;4947479;29;20257;-80
2023/01/25 08:14:41;;;;;;;20.43;11.17;;;;;;;-141.59;100.00;61776.25;4948618;29;20208;-79
2023/01/25 08:17:08;;;;;;;21.17;11.67;;;;;;;-141.59;100.00;61776.25;4955040;28;20252;-80
2023/01/25 08:19:35;;;;;;;23.57;12.33;;;;;;;-141.59;100.00;61776.25;4957004;28;20252;-79
2023/01/25 08:22:02;;;;;;;21.53;11.20;;;;;;;-141.59;100.00;61776.25;4957531;28;20269;-79
2023/01/25 08:24:28;;;;;;;21.03;11.53;;;;;;;-141.59;100.00;61776.25;4960480;28;20228;-80
2023/01/25 08:26:55;;;;;;;29.37;12.30;;;;;;;-141.59;100.00;61776.25;4953967;28;20217;-80
2023/01/25 08:29:23;;;;;;;20.90;11.90;;;;;;;-141.59;100.00;61776.25;4947839;28;20209;-80
2023/01/25 08:31:51;;;;;;;20.53;11.00;;;;;;;-141.59;100.00;61776.25;4950903;28;20255;-79
2023/01/25 08:34:18;;;;;;;24.73;11.93;;;;;;;-141.59;100.00;61776.25;4956721;28;20229;-79
2023/01/25 08:36:46;;;;;;;19.43;10.93;;;;;;;-141.59;100.00;61776.25;4948952;28;20296;-79
2023/01/25 08:39:13;;;;;;;23.93;12.40;;;;;;;-141.59;100.00;61776.25;4946514;28;20214;-80
2023/01/25 08:41:41;;;;;;;22.57;12.30;;;;;;;-141.59;100.00;61776.25;4941155;29;20214;-79
2023/01/25 08:44:09;;;;;;;20.60;12.20;;;;;;;-141.59;100.00;61776.25;4951039;28;20285;-79
2023/01/25 08:46:36;;;;;;;23.70;11.47;;;;;;;-141.59;100.00;61776.25;4952523;28;20220;-79
2023/01/25 08:49:06;;;;;;;21.57;12.17;;;;;;;-141.59;100.00;61776.25;4950273;28;20208;-80
2023/01/25 08:51:34;;;;;;;20.77;11.83;;;;;;;-141.59;100.00;61776.25;4952283;28;20228;-79
2023/01/25 08:54:08;;;;;;;19.40;12.03;;;;;;;-141.59;100.00;61776.25;4945115;28;20213;-80
2023/01/25 08:56:36;;;;;;;24.77;11.57;;;;;;;-141.59;100.00;61776.25;4955990;28;20252;-80
2023/01/25 08:59:04;;;;;;;22.07;12.00;;;;;;;-141.59;100.00;61776.25;4959899;28;20209;-79
2023/01/25 09:01:32;;;;;;;18.33;11.37;;;;;;;-141.59;100.00;61776.25;4947878;28;20209;-78
2023/01/25 09:03:59;;;;;;;20.93;11.33;;;;;;;-141.59;100.00;61776.25;4950127;28;20226;-78
2023/01/25 09:06:28;;;;;;;19.03;11.00;;;;;;;-141.59;100.00;61776.25;4950142;28;20212;-79
2023/01/25 09:08:55;;;;;;;23.93;12.53;;;;;;;-141.59;100.00;61776.25;4945653;28;20269;-79
2023/01/25 09:11:23;;;;;;;22.80;12.47;;;;;;;-141.59;100.00;61776.25;4948551;29;20234;-79
2023/01/25 09:13:50;;;;;;;21.50;11.53;;;;;;;-141.59;100.00;61776.25;4944098;28;20249;-79
2023/01/25 09:16:26;;;;;;;20.83;11.07;;;;;;;-141.59;100.00;61776.25;4938576;28;20230;-79
2023/01/25 09:18:54;;;;;;;16.83;10.87;;;;;;;-141.59;100.00;61776.25;4941398;29;20204;-80
2023/01/25 09:21:21;;;;;;;19.50;10.87;;;;;;;-141.59;100.00;61776.25;4950753;29;20206;-79
2023/01/25 09:23:51;;;;;;;19.03;11.20;;;;;;;-141.59;100.00;61776.25;4943725;28;20225;-79
2023/01/25 09:26:18;;;;;;;19.07;11.23;;;;;;;-141.59;100.00;61776.25;4942528;29;20212;-79
2023/01/25 09:28:47;;;;;;;21.80;11.40;;;;;;;-141.59;100.00;61776.25;4947308;29;20214;-79
2023/01/25 09:31:15;;;;;;;20.47;11.30;;;;;;;-141.59;100.00;61776.25;4947650;28;20291;-79
2023/01/25 09:34:01;;;;;;;21.10;11.27;;;;;;;-141.59;100.00;61776.25;4963882;28;20292;-79
2023/01/25 09:36:28;;;;;;;20.43;12.17;;;;;;;-141.59;100.00;61776.25;4943846;29;20197;-79
2023/01/25 09:38:57;;;;;;;18.57;10.87;;;;;;;-141.59;100.00;61776.25;4949175;29;20197;-79
2023/01/25 09:42:02;;;;;;;21.00;11.07;;;;;;;-141.59;100.00;61776.25;4943976;29;20289;-79
2023/01/25 09:44:43;;;;;;;18.20;10.13;;;;;;;-141.59;100.00;61776.25;4918361;29;20318;-78
2023/01/25 09:47:20;;;;;;;17.70;10.80;;;;;;;-141.59;100.00;61776.25;4945988;29;20214;-80
2023/01/25 09:50:14;;;;;;;16.27;9.40;;;;;;;-141.59;100.00;61776.25;4947613;28;20209;-79
2023/01/25 09:53:15;;;;;;;18.87;9.93;;;;;;;-141.59;100.00;61776.25;4939760;28;20236;-79
2023/01/25 09:55:45;;;;;;;20.30;11.17;;;;;;;-141.59;100.00;61776.25;4952356;28;20234;-79
2023/01/25 09:58:18;;;;;;;23.37;12.27;;;;;;;-141.59;100.00;61776.25;4942853;28;20198;-80
2023/01/25 10:00:46;;;;;;;16.73;10.33;;;;;;;-141.59;100.00;61776.25;4946123;28;20197;-79
2023/01/25 10:03:23;;;;;;;17.07;10.67;;;;;;;-141.59;100.00;61776.25;4950442;28;20300;-79
2023/01/25 10:05:53;;;;;;;17.23;10.70;;;;;;;-141.59;100.00;61776.25;4940034;29;20331;-79
2023/01/25 10:08:28;;;;;;;18.00;10.67;;;;;;;-141.59;100.00;61776.25;4946512;28;20207;-79
2023/01/25 10:11:02;;;;;;;20.87;11.03;;;;;;;-141.59;100.00;61776.25;4945087;28;20226;-79
2023/01/25 10:13:30;;;;;;;23.77;11.20;;;;;;;-141.59;100.00;61776.25;4943486;28;20210;-79
2023/01/25 10:16:06;;;;;;;18.40;10.67;;;;;;;-141.59;100.00;61776.25;4943971;28;20273;-80
2023/01/25 10:18:39;;;;;;;22.73;10.77;;;;;;;-141.59;100.00;61776.25;4962508;28;21088;-80
2023/01/25 10:21:12;;;;;;;19.87;10.97;;;;;;;-141.59;100.00;61776.25;4943116;28;20221;-79
2023/01/25 10:24:00;;;;;;;20.83;10.73;;;;;;;-141.59;100.00;61776.25;4942314;28;20226;-79
2023/01/25 10:26:33;;;;;;;19.20;11.10;;;;;;;-141.59;100.00;61776.25;4940105;28;20212;-79
2023/01/25 10:29:08;;;;;;;19.37;11.13;;;;;;;-141.59;100.00;61776.25;4944581;28;20210;-79
2023/01/25 10:31:45;;;;;;;22.50;11.30;;;;;;;-141.59;100.00;61776.25;4935934;28;20204;-79
2023/01/25 10:34:19;;;;;;;19.73;11.43;;;;;;;-141.59;100.00;61776.25;4935429;28;20233;-79
2023/01/25 10:36:51;;;;;;;18.80;11.13;;;;;;;-141.59;100.00;61776.25;4922364;29;20223;-79
2023/01/25 10:39:19;;;;;;;20.37;11.80;;;;;;;-141.59;100.00;61776.25;4904808;29;20250;-80
2023/01/25 10:41:51;;;;;;;18.53;10.93;;;;;;;-141.59;100.00;61776.25;4910176;29;20284;-81
2023/01/25 10:44:23;;;;;;;26.77;11.87;;;;;;;-141.59;100.00;61776.25;4909350;29;20222;-78
2023/01/25 10:46:57;;;;;;;20.80;11.87;;;;;;;-141.59;100.00;61776.25;4903330;29;20277;-78
2023/01/25 10:49:32;;;;;;;23.63;12.57;;;;;;;-141.59;100.00;61776.25;4909737;29;20260;-78
2023/01/25 10:52:14;;;;;;;22.03;12.33;;;;;;;-141.59;100.00;61776.25;4922803;29;20208;-78
2023/01/25 10:54:41;;;;;;;18.50;10.27;;;;;;;-141.59;100.00;61776.25;4923166;29;20213;-78
2023/01/25 10:57:16;;;;;;;21.63;12.10;;;;;;;-141.59;100.00;61776.25;4909817;29;20206;-77
2023/01/25 10:59:46;;;;;;;28.50;13.57;;;;;;;-141.59;100.00;61776.25;4911460;29;20312;-80
2023/01/25 11:02:40;;;;;;;30.80;13.27;;;;;;;-141.59;100.00;61776.25;4912523;29;20294;-80
2023/01/25 11:05:29;;;;;;;20.13;11.63;;;;;;;-141.59;100.00;61776.25;4906497;29;20238;-80
2023/01/25 11:07:57;;;;;;;21.13;11.73;;;;;;;-141.59;100.00;61776.25;4904459;29;20214;-80
2023/01/25 11:10:29;;;;;;;22.50;11.57;;;;;;;-141.59;100.00;61776.25;4907822;29;20207;-81